Time;durP1;ratioP1;P1;durP2;ratioP2;P2;SDS_P1;SDS_P2;PMS_P1;PMS_P2;Temp;Humidity;BMP_temperature;BMP_pressure;BME280_temperature;BME280_humidity;BME280_pressure;Samples;Min_cycle;Max_cycle;Signal;HPM_P1;HPM_P2
2023/04/04 00:00:35;;;;;;;4.03;2.17;;;1.40;50.50;;;1.52;51.58;98890.28;4945315;28;20443;-75
2023/04/04 00:03:03;;;;;;;3.23;2.47;;;1.50;50.20;;;1.45;51.29;98890.00;4949574;28;20474;-76
2023/04/04 00:05:31;;;;;;;4.20;2.13;;;1.60;50.00;;;1.46;51.86;98889.00;4958766;28;20461;-76
2023/04/04 00:08:00;;;;;;;3.40;1.63;;;1.60;49.90;;;0.98;51.57;98802.66;4966613;28;20461;-77
2023/04/04 00:10:27;;;;;;;3.67;2.50;;;1.60;50.00;;;1.60;52.12;98895.78;4969051;28;20469;-75
2023/04/04 00:12:55;;;;;;;3.00;2.20;;;1.70;50.40;;;1.52;52.00;98883.16;4968546;28;20453;-78
2023/04/04 00:15:22;;;;;;;3.40;1.90;;;1.70;50.10;;;1.51;51.55;98876.13;4951363;28;20469;-76
2023/04/04 00:17:50;;;;;;;4.73;1.90;;;1.70;50.00;;;1.44;51.64;98890.13;4968799;28;20475;-75
2023/04/04 00:20:18;;;;;;;2.03;1.50;;;1.70;49.80;;;1.50;52.28;98878.94;4968925;28;20564;-74
2023/04/04 00:22:45;;;;;;;2.93;2.07;;;1.70;50.10;;;1.59;51.65;98878.09;4970551;28;20457;-76
2023/04/04 00:25:14;;;;;;;1.90;1.70;;;1.70;50.10;;;1.37;52.28;98885.34;4946626;28;20475;-75
2023/04/04 00:27:41;;;;;;;2.70;1.70;;;1.70;49.90;;;1.49;52.18;98878.06;4966081;28;20514;-76
2023/04/04 00:30:12;;;;;;;5.27;2.00;;;1.70;50.00;;;1.45;52.32;98849.22;4945948;28;20554;-74
2023/04/04 00:32:39;;;;;;;2.73;1.90;;;1.70;50.20;;;1.60;52.14;98873.63;4964940;28;20531;-76
2023/04/04 00:35:08;;;;;;;2.43;2.23;;;1.80;50.40;;;1.63;52.34;98868.88;4962508;28;20462;-76
2023/04/04 00:37:35;;;;;;;3.33;1.83;;;1.80;50.50;;;1.55;52.36;98871.38;4970957;28;21184;-75
2023/04/04 00:40:04;;;;;;;3.80;2.50;;;1.70;50.30;;;1.47;52.57;98868.56;4952903;28;20464;-77
2023/04/04 00:42:33;;;;;;;2.50;2.30;;;1.80;50.40;;;1.40;52.51;98863.75;4966868;28;21181;-76
2023/04/04 00:45:02;;;;;;;2.50;2.30;;;1.70;50.40;;;1.50;53.05;98869.09;4964059;28;20547;-76
2023/04/04 00:47:31;;;;;;;3.50;2.80;;;1.70;50.80;;;1.23;53.23;98848.44;4947489;28;21024;-77
2023/04/04 00:50:01;;;;;;;3.13;2.50;;;1.70;50.50;;;1.40;52.90;98863.75;4965744;28;20560;-73
2023/04/04 00:52:29;;;;;;;4.70;2.80;;;1.70;50.50;;;1.34;52.96;98853.66;4965177;28;20474;-76
2023/04/04 00:54:56;;;;;;;3.90;2.37;;;1.60;50.70;;;1.47;52.04;98864.06;4958450;28;20459;-77
2023/04/04 00:57:24;;;;;;;4.07;2.90;;;1.70;50.20;;;1.57;51.63;98857.94;4952123;28;20568;-74
2023/04/04 00:59:54;;;;;;;2.90;2.70;;;1.70;49.90;;;1.34;51.23;98859.00;4970048;28;20476;-76
2023/04/04 01:02:22;;;;;;;4.57;2.80;;;1.70;49.00;;;1.44;50.79;98852.81;4961854;28;20467;-75
2023/04/04 01:04:51;;;;;;;3.20;2.60;;;1.70;48.80;;;1.62;50.88;98861.88;4952204;28;20465;-75
2023/04/04 01:07:18;;;;;;;4.20;2.50;;;1.70;48.80;;;1.62;50.39;98856.53;4964348;28;20487;-75
2023/04/04 01:09:46;;;;;;;5.27;2.70;;;1.80;48.70;;;1.38;50.80;98855.06;4968594;28;20517;-77
2023/04/04 01:12:13;;;;;;;2.60;2.40;;;1.70;48.30;;;1.18;50.09;98856.81;4957091;28;20463;-75
2023/04/04 01:14:41;;;;;;;3.03;2.80;;;1.60;47.40;;;1.33;49.95;98857.31;4976781;28;20471;-76
2023/04/04 01:17:10;;;;;;;2.83;2.63;;;1.60;47.40;;;1.22;49.46;98852.94;4951071;28;20474;-78
2023/04/04 01:19:48;;;;;;;6.47;3.40;;;1.60;47.20;;;1.07;48.08;98835.66;4972521;28;20554;-76
2023/04/04 01:22:19;;;;;;;2.63;2.43;;;1.60;46.10;;;1.13;48.85;98845.75;4962419;28;20472;-75
2023/04/04 01:24:49;;;;;;;2.37;2.17;;;1.60;46.00;;;1.11;48.13;98861.00;4969909;28;20486;-76
2023/04/04 01:27:17;;;;;;;2.60;2.40;;;1.50;45.40;;;1.10;47.60;98852.16;4949457;28;20549;-75
2023/04/04 01:29:45;;;;;;;2.53;2.27;;;1.50;45.10;;;1.08;47.90;98847.97;4968707;28;20459;-78
2023/04/04 01:32:20;;;;;;;3.40;2.50;;;1.40;45.20;;;1.02;47.50;98838.72;4965427;28;20467;-77
2023/04/04 01:34:57;;;;;;;2.37;2.17;;;1.30;44.90;;;0.79;47.62;98838.88;4948253;28;20473;-75
2023/04/04 01:37:32;;;;;;;10.37;3.77;;;1.20;44.80;;;0.70;47.97;98845.00;4964128;28;20484;-77
2023/04/04 01:40:06;;;;;;;3.30;3.00;;;1.00;44.90;;;0.63;48.16;98843.81;4964643;28;20481;-77
2023/04/04 01:42:36;;;;;;;3.13;2.93;;;0.90;45.10;;;0.47;48.15;98823.03;4968713;28;20453;-77
2023/04/04 01:45:07;;;;;;;3.43;2.97;;;0.80;45.10;;;0.53;48.74;98849.09;4959439;28;20954;-76
2023/04/04 01:47:39;;;;;;;3.40;2.57;;;0.70;45.30;;;0.26;49.02;98815.88;4946111;28;20674;-78
2023/04/04 01:50:09;;;;;;;4.13;2.80;;;0.60;45.70;;;0.36;49.36;98845.19;4967624;28;20504;-76
2023/04/04 01:52:37;;;;;;;2.83;2.60;;;0.40;45.90;;;0.22;49.28;98843.72;4944651;28;20823;-75
2023/04/04 01:55:05;;;;;;;2.73;2.30;;;0.30;45.90;;;0.13;49.65;98832.03;4963815;28;20465;-78
2023/04/04 01:57:33;;;;;;;6.47;3.17;;;0.30;46.20;;;0.00;50.09;98842.88;4968521;28;20519;-73
2023/04/04 02:00:01;;;;;;;4.50;2.60;;;0.10;46.30;;;-0.06;50.66;98841.56;4965362;28;20472;-75
2023/04/04 02:02:28;;;;;;;3.30;2.47;;;0.20;46.60;;;-0.03;50.39;98838.63;4964494;28;20473;-75
2023/04/04 02:04:55;;;;;;;4.40;3.03;;;0.20;46.70;;;-0.05;50.78;98842.38;4949251;28;20643;-77
2023/04/04 02:07:23;;;;;;;3.40;2.83;;;0.10;46.80;;;-0.12;51.22;98827.94;4964639;28;20468;-76
2023/04/04 02:09:50;;;;;;;3.80;2.90;;;0.00;47.10;;;-0.12;51.45;98834.06;4952158;28;20461;-75
2023/04/04 02:12:17;;;;;;;4.30;3.43;;;0.00;47.50;;;-0.20;51.63;98844.50;4950431;28;20464;-75
2023/04/04 02:14:48;;;;;;;2.77;2.47;;;-0.10;47.50;;;-0.22;51.59;98833.16;4964693;28;20469;-74
2023/04/04 02:17:15;;;;;;;3.30;2.63;;;-0.10;47.60;;;-0.70;52.20;98771.50;4961521;28;20481;-74
2023/04/04 02:19:44;;;;;;;2.70;2.50;;;-0.20;47.80;;;-0.42;51.97;98830.31;4963344;28;20492;-76
2023/04/04 02:22:12;;;;;;;2.77;2.57;;;-0.20;48.00;;;-0.44;52.53;98832.25;4964425;28;21301;-75
2023/04/04 02:24:39;;;;;;;3.70;2.90;;;-0.30;48.00;;;-0.45;52.84;98826.13;4962634;28;21000;-75
2023/04/04 02:27:06;;;;;;;4.70;2.77;;;-0.30;48.30;;;-0.64;52.86;98823.25;4967394;28;20494;-77
2023/04/04 02:29:34;;;;;;;4.67;2.83;;;-0.30;48.40;;;-0.49;53.05;98826.47;4958876;28;20488;-77
2023/04/04 02:32:02;;;;;;;3.10;2.80;;;-0.30;48.50;;;-0.68;53.93;98827.97;4966975;28;20511;-76
2023/04/04 02:34:30;;;;;;;4.50;2.57;;;-0.50;48.60;;;-0.66;53.41;98828.69;4958999;28;20460;-74
2023/04/04 02:36:57;;;;;;;3.90;2.43;;;-0.50;49.10;;;-0.90;54.28;98824.38;4959546;28;20504;-76
2023/04/04 02:39:25;;;;;;;2.67;2.47;;;-0.60;49.20;;;-0.77;53.88;98820.75;4944854;28;20877;-75
2023/04/04 02:41:52;;;;;;;7.13;2.90;;;-0.60;49.30;;;-0.86;54.24;98820.50;4941980;28;20449;-75
2023/04/04 02:44:19;;;;;;;6.00;2.80;;;-0.70;49.50;;;-0.84;54.31;98811.56;4957784;28;20480;-77
2023/04/04 02:46:47;;;;;;;3.03;2.67;;;-0.70;49.70;;;-0.94;54.71;98814.97;4957722;28;20654;-75
2023/04/04 02:49:15;;;;;;;3.10;2.80;;;-0.70;49.90;;;-1.31;54.48;98759.53;4964528;28;20753;-75
2023/04/04 02:51:42;;;;;;;3.13;2.73;;;-0.80;50.00;;;-1.02;55.28;98814.72;4962043;28;20457;-75
2023/04/04 02:54:10;;;;;;;2.77;2.53;;;-0.80;50.10;;;-1.03;54.91;98818.34;4962676;28;20460;-77
2023/04/04 02:56:38;;;;;;;2.80;2.50;;;-0.80;50.30;;;-1.10;55.23;98820.66;4941951;28;20474;-76
2023/04/04 02:59:06;;;;;;;4.23;2.87;;;-0.90;50.40;;;-1.08;55.47;98820.53;4968134;28;20450;-76
2023/04/04 03:01:33;;;;;;;4.60;2.80;;;-1.00;50.50;;;-1.16;55.59;98819.31;4962713;28;20815;-77
2023/04/04 03:04:02;;;;;;;2.40;2.20;;;-1.00;50.70;;;-1.22;55.64;98814.50;4948355;28;20463;-75
2023/04/04 03:06:33;;;;;;;2.97;2.77;;;-1.00;50.80;;;-1.23;55.99;98817.25;4965931;28;20957;-76
2023/04/04 03:09:03;;;;;;;3.80;2.93;;;-1.00;50.80;;;-1.28;55.99;98815.00;4963063;28;20447;-77
2023/04/04 03:11:31;;;;;;;3.63;3.10;;;-1.10;51.10;;;-1.31;56.39;98810.78;4951465;28;20459;-75
2023/04/04 03:13:58;;;;;;;2.60;2.40;;;-1.20;51.30;;;-1.26;56.44;98813.06;4947506;28;20474;-75
2023/04/04 03:16:28;;;;;;;3.30;3.00;;;-1.20;51.30;;;-1.39;56.42;98796.44;4948589;28;20460;-75
2023/04/04 03:18:56;;;;;;;3.70;2.50;;;-1.10;51.60;;;-1.33;56.61;98811.84;4950701;28;20534;-78
2023/04/04 03:21:23;;;;;;;2.90;2.50;;;-1.10;51.60;;;-1.39;56.45;98807.03;4951190;28;20499;-75
2023/04/04 03:23:51;;;;;;;2.63;2.43;;;-1.10;51.60;;;-1.41;57.03;98809.78;4972416;28;20491;-77
2023/04/04 03:26:19;;;;;;;3.80;3.10;;;-1.20;51.70;;;-1.40;56.76;98815.94;4958818;28;20488;-78
2023/04/04 03:28:46;;;;;;;3.43;2.87;;;-1.20;51.80;;;-1.50;57.26;98811.34;4966645;28;20480;-76
2023/04/04 03:31:13;;;;;;;4.10;3.40;;;-1.30;52.00;;;-1.53;57.67;98811.59;4962854;28;20459;-77
2023/04/04 03:33:41;;;;;;;3.67;3.37;;;-1.30;52.30;;;-1.41;57.06;98804.50;4955969;28;20476;-77
2023/04/04 03:36:11;;;;;;;3.63;2.73;;;-1.30;52.70;;;-1.83;57.43;98759.13;4946215;28;20466;-79
2023/04/04 03:38:39;;;;;;;3.90;2.60;;;-1.40;52.70;;;-1.55;57.65;98802.94;4963328;28;20479;-78
2023/04/04 03:41:08;;;;;;;2.90;2.70;;;-1.50;52.90;;;-1.59;58.06;98806.78;4958540;28;20460;-76
2023/04/04 03:43:36;;;;;;;4.10;2.90;;;-1.50;53.20;;;-1.61;58.00;98806.03;4944260;28;20459;-77
2023/04/04 03:46:04;;;;;;;3.20;2.77;;;-1.50;53.40;;;-1.66;58.60;98802.91;4941836;28;21069;-76
2023/04/04 03:48:32;;;;;;;3.10;2.90;;;-1.50;53.60;;;-1.81;58.43;98805.75;4962587;28;20519;-75
2023/04/04 03:51:00;;;;;;;3.57;3.27;;;-1.60;53.70;;;-1.81;58.20;98778.44;4958848;28;20460;-77
2023/04/04 03:53:28;;;;;;;4.60;3.27;;;-1.50;53.90;;;-1.80;59.24;98804.81;4967139;28;20471;-77
2023/04/04 03:55:56;;;;;;;6.87;3.63;;;-1.60;54.40;;;-1.92;59.24;98792.47;4961440;28;20483;-76
2023/04/04 03:58:29;;;;;;;4.07;3.30;;;-1.60;54.40;;;-1.81;59.06;98800.47;4963682;28;20478;-77
2023/04/04 04:00:57;;;;;;;3.97;2.80;;;-1.60;54.60;;;-1.74;58.67;98809.66;4963653;28;20513;-75
2023/04/04 04:03:24;;;;;;;8.67;3.70;;;-1.60;54.70;;;-1.83;58.81;98802.38;4956979;28;20965;-76
2023/04/04 04:05:52;;;;;;;3.80;3.27;;;-1.60;54.80;;;-1.78;59.04;98805.53;4966196;28;20464;-75
2023/04/04 04:08:20;;;;;;;3.80;3.00;;;-1.60;54.80;;;-1.88;59.27;98797.44;4964502;28;20524;-76
2023/04/04 04:10:47;;;;;;;4.70;3.27;;;-1.60;55.10;;;-1.94;59.50;98797.06;4963703;28;20820;-76
2023/04/04 04:13:14;;;;;;;5.73;2.90;;;-1.60;55.10;;;-1.91;59.80;98808.28;4964007;28;20463;-77
2023/04/04 04:15:44;;;;;;;3.23;2.73;;;-1.70;55.30;;;-2.31;59.49;98743.28;4945546;28;20458;-77
2023/04/04 04:18:12;;;;;;;4.40;3.80;;;-1.70;55.50;;;-1.98;59.83;98801.72;4960123;28;20480;-74
2023/04/04 04:20:39;;;;;;;4.63;3.50;;;-1.80;55.60;;;-1.98;59.94;98790.31;4972770;28;20466;-74
2023/04/04 04:23:07;;;;;;;4.30;3.23;;;-1.80;56.10;;;-2.39;59.89;98761.53;4967247;28;20486;-76
2023/04/04 04:25:34;;;;;;;4.23;3.47;;;-1.90;56.40;;;-1.89;59.93;98802.88;4966932;28;20460;-76
2023/04/04 04:28:01;;;;;;;4.57;3.17;;;-1.80;56.60;;;-1.89;60.09;98805.50;4945968;28;20455;-75
2023/04/04 04:30:29;;;;;;;5.93;3.13;;;-1.80;56.60;;;-2.26;59.70;98747.38;4967602;28;20491;-76
2023/04/04 04:32:58;;;;;;;5.10;3.00;;;-1.70;56.60;;;-2.28;59.72;98750.13;4961433;28;20484;-75
2023/04/04 04:35:26;;;;;;;4.07;3.73;;;-1.80;56.80;;;-2.01;60.59;98801.97;4961524;28;20491;-74
2023/04/04 04:37:55;;;;;;;3.90;3.50;;;-1.80;56.80;;;-1.95;59.97;98800.66;4948900;28;20883;-75
2023/04/04 04:40:23;;;;;;;3.50;3.17;;;-1.80;57.20;;;-1.94;60.08;98797.06;4949532;28;20447;-77
2023/04/04 04:42:50;;;;;;;4.93;3.00;;;-1.70;57.10;;;-1.86;59.71;98805.28;4948556;28;20479;-76
2023/04/04 04:45:17;;;;;;;4.57;3.23;;;-1.70;57.10;;;-1.91;60.03;98807.41;4969891;28;20885;-77
2023/04/04 04:47:45;;;;;;;4.03;3.43;;;-1.70;56.90;;;-1.98;60.09;98795.59;4960876;28;20455;-77
2023/04/04 04:50:14;;;;;;;2.67;2.27;;;-1.60;56.70;;;-1.85;59.85;98801.66;4947202;28;21135;-79
2023/04/04 04:52:41;;;;;;;5.53;2.93;;;-1.60;56.80;;;-1.83;60.14;98810.34;4953707;28;20972;-76
2023/04/04 04:55:10;;;;;;;5.17;3.00;;;-1.60;57.00;;;-1.86;59.56;98805.28;4968013;28;20533;-76
2023/04/04 04:57:38;;;;;;;4.03;3.00;;;-1.70;57.00;;;-1.88;59.65;98792.13;4955805;28;20508;-76
2023/04/04 05:00:08;;;;;;;3.03;2.77;;;-1.60;56.90;;;-1.83;59.28;98798.88;4978666;28;20459;-77
2023/04/04 05:02:36;;;;;;;4.40;3.00;;;-1.60;56.40;;;-1.83;59.13;98807.69;4949984;28;20538;-76
2023/04/04 05:05:04;;;;;;;6.47;3.93;;;-1.60;56.30;;;-1.63;58.99;98810.59;4968404;28;20459;-76
2023/04/04 05:07:32;;;;;;;3.40;2.87;;;-1.40;56.50;;;-1.26;57.50;98805.13;4970488;28;20451;-76
2023/04/04 05:10:01;;;;;;;2.53;2.33;;;-1.00;55.70;;;-0.88;56.24;98806.50;4969106;28;20491;-77
2023/04/04 05:12:28;;;;;;;3.30;2.97;;;-0.60;54.90;;;-0.69;55.82;98791.75;4953801;28;20523;-74
2023/04/04 05:14:56;;;;;;;3.60;2.60;;;-0.20;53.80;;;-0.22;54.96;98795.97;4946950;28;20972;-76
2023/04/04 05:17:23;;;;;;;4.03;3.00;;;0.20;53.30;;;0.03;54.42;98794.78;4967781;28;20563;-76
2023/04/04 05:19:51;;;;;;;2.77;2.57;;;0.50;52.50;;;-0.11;54.14;98797.72;4971974;28;20945;-75
2023/04/04 05:22:18;;;;;;;3.30;3.00;;;0.60;51.60;;;0.07;53.44;98805.97;4972023;28;20467;-75
2023/04/04 05:24:47;;;;;;;5.60;2.60;;;0.80;51.30;;;0.31;52.62;98803.06;4961234;28;20512;-75
2023/04/04 05:27:14;;;;;;;2.90;2.60;;;1.10;50.70;;;0.14;53.24;98801.84;4960494;28;20628;-78
2023/04/04 05:29:42;;;;;;;4.00;2.53;;;1.00;50.20;;;0.03;53.08;98809.84;4964950;28;20467;-79
2023/04/04 05:32:09;;;;;;;3.77;2.83;;;0.90;50.20;;;-0.29;54.44;98801.78;4944836;28;20957;-76
2023/04/04 05:34:36;;;;;;;2.93;2.63;;;0.40;50.40;;;-0.69;54.95;98813.00;4954966;28;21032;-76
2023/04/04 05:37:04;;;;;;;3.87;2.90;;;-0.10;51.10;;;-0.87;56.21;98810.03;4951307;28;20454;-75
2023/04/04 05:39:31;;;;;;;2.70;2.47;;;-0.40;52.10;;;-0.83;55.76;98813.25;4966799;28;20973;-76
2023/04/04 05:41:59;;;;;;;3.07;2.70;;;-0.60;52.60;;;-0.95;57.24;98799.16;4982630;28;20649;-76
2023/04/04 05:44:27;;;;;;;4.30;2.90;;;-0.60;53.90;;;-0.93;56.13;98802.53;4978783;28;20462;-74
2023/04/04 05:46:54;;;;;;;4.63;2.63;;;-0.60;53.40;;;-0.95;55.93;98815.09;4965024;28;20769;-77
2023/04/04 05:49:21;;;;;;;4.17;2.77;;;-0.70;53.10;;;-0.87;55.97;98802.06;4986727;28;20461;-75
2023/04/04 05:51:49;;;;;;;2.70;1.90;;;-0.60;53.40;;;-1.18;56.16;98749.63;4985588;28;20468;-75
2023/04/04 05:54:16;;;;;;;3.17;2.87;;;-0.60;53.40;;;-1.06;55.89;98766.41;4983435;28;20505;-74
2023/04/04 05:56:43;;;;;;;3.37;2.90;;;-0.50;53.50;;;-0.88;56.01;98809.16;4986616;28;20498;-75
2023/04/04 05:59:12;;;;;;;4.20;3.10;;;-0.50;53.40;;;-0.81;55.82;98811.34;4986068;28;20479;-74
2023/04/04 06:01:40;;;;;;;2.67;2.47;;;-0.50;53.30;;;-0.63;55.68;98820.47;4984510;28;21071;-73
2023/04/04 06:04:07;;;;;;;3.23;2.50;;;-0.40;53.20;;;-0.63;55.75;98817.81;4972365;28;20455;-77
2023/04/04 06:06:35;;;;;;;3.67;2.97;;;-0.40;53.20;;;-0.57;55.37;98822.63;4963836;28;21088;-74
2023/04/04 06:09:02;;;;;;;2.80;2.60;;;-0.30;53.00;;;-0.64;55.55;98807.31;4981211;28;20876;-75
2023/04/04 06:11:30;;;;;;;6.03;3.37;;;-0.30;52.90;;;-0.51;55.97;98817.81;4978175;28;20473;-75
2023/04/04 06:13:59;;;;;;;4.20;3.00;;;-0.20;53.20;;;-0.30;55.40;98816.03;4958218;28;20547;-79
2023/04/04 06:16:31;;;;;;;4.37;2.90;;;-0.10;53.10;;;-0.16;54.55;98830.81;4953608;28;20951;-73
2023/04/04 06:18:59;;;;;;;4.90;3.27;;;0.00;52.70;;;-0.15;54.72;98819.25;4977459;28;20476;-73
2023/04/04 06:21:27;;;;;;;3.40;2.40;;;0.10;52.50;;;-0.15;54.21;98815.75;4982850;28;20455;-72
2023/04/04 06:23:54;;;;;;;3.40;3.00;;;0.10;52.30;;;-0.11;54.01;98811.03;4966356;28;20456;-73
2023/04/04 06:26:22;;;;;;;3.70;2.33;;;0.20;52.10;;;0.03;53.27;98823.13;4953864;28;20633;-76
2023/04/04 06:28:49;;;;;;;3.37;2.33;;;0.30;51.80;;;-0.04;53.87;98821.00;4957654;28;20447;-72
2023/04/04 06:31:18;;;;;;;3.80;2.80;;;0.30;51.70;;;0.26;54.40;98810.56;4965592;28;20478;-73
2023/04/04 06:33:47;;;;;;;2.57;2.37;;;0.40;52.20;;;0.24;52.91;98824.00;4981675;28;20531;-72
2023/04/04 06:36:14;;;;;;;3.30;2.60;;;0.50;51.40;;;0.27;53.05;98829.06;4978385;28;20458;-74
2023/04/04 06:38:41;;;;;;;4.60;2.90;;;0.50;51.50;;;0.42;53.18;98820.75;4965235;28;20473;-73
2023/04/04 06:41:08;;;;;;;3.60;2.80;;;0.60;51.30;;;0.47;52.99;98821.19;4982226;28;20467;-73
2023/04/04 06:43:36;;;;;;;4.40;2.43;;;0.70;51.30;;;0.61;52.46;98829.81;4964979;28;20789;-73
2023/04/04 06:46:04;;;;;;;4.03;2.30;;;0.80;51.20;;;0.58;52.34;98830.09;4985152;28;20466;-73
2023/04/04 06:48:31;;;;;;;2.90;2.60;;;0.90;50.90;;;0.79;52.23;98833.56;4982032;28;20471;-73
2023/04/04 06:51:00;;;;;;;3.03;2.73;;;1.00;51.00;;;0.80;52.41;98821.94;4985457;28;20471;-74
2023/04/04 06:53:27;;;;;;;3.23;2.53;;;1.00;50.90;;;0.78;51.99;98813.25;4967992;28;20456;-71
2023/04/04 06:55:54;;;;;;;6.83;2.77;;;1.10;50.70;;;0.67;52.04;98829.28;4970284;28;20455;-73
2023/04/04 06:58:22;;;;;;;3.73;2.73;;;1.10;50.40;;;0.89;52.23;98822.13;4970308;28;20481;-75
2023/04/04 07:00:49;;;;;;;4.77;2.60;;;1.10;50.70;;;0.98;52.79;98821.28;4955356;28;20471;-79
2023/04/04 07:03:16;;;;;;;3.10;2.43;;;1.20;51.10;;;0.90;52.24;98824.63;4977986;28;20482;-76
2023/04/04 07:05:44;;;;;;;3.43;2.77;;;1.20;50.70;;;0.92;51.97;98829.81;4964988;28;20460;-76
2023/04/04 07:08:13;;;;;;;2.77;2.50;;;1.30;50.60;;;1.04;52.35;98815.47;4979893;28;20455;-77
2023/04/04 07:10:40;;;;;;;4.13;2.73;;;1.40;50.70;;;1.19;51.83;98829.22;4969030;28;20452;-77
2023/04/04 07:13:08;;;;;;;5.00;3.03;;;1.40;50.50;;;1.03;52.53;98824.41;4969002;28;20557;-75
2023/04/04 07:15:36;;;;;;;3.30;2.53;;;1.40;50.60;;;1.37;51.65;98825.94;4980953;28;20867;-77
2023/04/04 07:18:03;;;;;;;4.73;3.10;;;1.60;50.70;;;1.55;51.49;98828.75;4965883;28;20465;-75
2023/04/04 07:20:31;;;;;;;4.13;2.97;;;1.60;50.60;;;1.48;51.53;98824.97;4981585;28;20502;-77
2023/04/04 07:22:58;;;;;;;3.70;2.63;;;1.80;50.60;;;1.53;51.45;98833.38;4984109;28;20478;-78
2023/04/04 07:25:26;;;;;;;4.80;3.57;;;1.80;50.50;;;1.54;51.20;98833.25;4964025;28;20949;-76
2023/04/04 07:27:54;;;;;;;3.47;3.17;;;1.90;50.30;;;1.54;51.66;98827.06;4979485;28;20864;-80
2023/04/04 07:30:25;;;;;;;3.43;2.97;;;1.90;50.30;;;1.66;50.45;98835.75;4986529;28;20460;-74
2023/04/04 07:32:57;;;;;;;4.30;3.20;;;2.00;49.70;;;1.54;49.94;98840.38;4980598;28;20468;-76
2023/04/04 07:35:25;;;;;;;3.40;2.87;;;1.90;49.10;;;1.54;50.51;98827.06;4976752;28;20525;-76
2023/04/04 07:37:53;;;;;;;4.40;3.73;;;1.90;49.30;;;1.66;50.42;98830.44;4985901;28;20579;-78
2023/04/04 07:40:20;;;;;;;5.03;3.40;;;2.00;49.40;;;1.89;50.13;98817.69;4979810;28;20518;-78
2023/04/04 07:42:50;;;;;;;3.90;2.90;;;2.10;49.70;;;2.16;48.94;98832.16;4983116;28;20522;-77
2023/04/04 07:45:17;;;;;;;5.00;3.10;;;2.30;49.10;;;2.24;49.29;98840.28;4963532;28;20977;-77
2023/04/04 07:47:45;;;;;;;4.33;3.30;;;2.40;49.20;;;2.43;48.83;98819.03;4982747;28;20465;-77
2023/04/04 07:50:14;;;;;;;7.70;3.03;;;2.60;48.90;;;2.54;48.26;98833.09;4982761;28;20459;-77
2023/04/04 07:52:42;;;;;;;5.27;3.00;;;2.80;48.50;;;2.64;48.10;98826.88;4988358;28;20467;-79
2023/04/04 07:55:09;;;;;;;4.17;2.97;;;2.80;48.20;;;2.14;48.37;98822.63;4987835;28;20567;-76
2023/04/04 07:57:38;;;;;;;6.67;2.97;;;2.70;47.60;;;2.22;48.08;98836.94;4983308;28;20456;-77
2023/04/04 08:00:09;;;;;;;3.23;2.70;;;2.60;47.50;;;2.62;47.33;98828.84;4977665;28;20507;-77
2023/04/04 08:02:37;;;;;;;4.37;3.10;;;2.80;47.70;;;2.59;46.82;98830.00;4974697;28;20459;-75
2023/04/04 08:05:05;;;;;;;2.57;2.30;;;2.90;46.80;;;2.50;47.20;98833.50;4964775;28;20475;-73
2023/04/04 08:07:32;;;;;;;3.90;3.37;;;2.90;46.50;;;2.61;46.49;98830.69;4985738;28;20483;-73
2023/04/04 08:10:00;;;;;;;5.47;2.93;;;3.00;46.20;;;3.09;45.59;98826.16;4969773;28;20538;-76
2023/04/04 08:12:27;;;;;;;4.13;3.00;;;3.20;46.40;;;3.31;45.33;98832.09;4969871;28;20972;-74
2023/04/04 08:14:54;;;;;;;3.83;2.83;;;3.50;46.20;;;3.08;44.34;98797.75;4978632;28;20468;-71
2023/04/04 08:17:23;;;;;;;3.13;2.80;;;3.70;45.30;;;3.42;44.42;98827.56;4985563;28;20936;-73
2023/04/04 08:19:51;;;;;;;3.97;2.93;;;3.70;44.80;;;3.25;45.07;98830.84;4984131;28;20500;-74
2023/04/04 08:22:18;;;;;;;4.00;3.30;;;3.70;45.20;;;3.19;43.47;98705.09;4981422;28;20563;-73
2023/04/04 08:24:46;;;;;;;4.70;2.77;;;4.10;45.00;;;3.91;43.81;98830.72;4981149;28;20451;-80
2023/04/04 08:27:13;;;;;;;3.73;2.80;;;4.10;44.60;;;4.36;43.45;98812.03;4961746;28;20542;-72
2023/04/04 08:29:41;;;;;;;3.30;3.00;;;4.40;44.90;;;5.20;40.45;98811.50;4959240;28;20460;-75
2023/04/04 08:32:09;;;;;;;3.30;2.50;;;5.00;44.00;;;4.91;41.50;98818.06;4986630;28;20456;-74
2023/04/04 08:34:37;;;;;;;4.57;2.90;;;5.10;43.20;;;4.18;41.52;98770.13;4980223;28;20463;-74
2023/04/04 08:37:05;;;;;;;3.17;2.73;;;4.90;42.40;;;4.78;39.39;98814.00;4970764;28;21168;-74
2023/04/04 08:39:32;;;;;;;3.93;3.27;;;5.10;42.10;;;4.79;39.96;98821.03;4985881;28;20472;-74
2023/04/04 08:42:04;;;;;;;4.20;3.07;;;5.00;42.10;;;4.54;40.45;98812.84;4963761;28;20476;-79
2023/04/04 08:44:33;;;;;;;3.33;2.80;;;4.90;42.00;;;4.26;39.62;98790.75;4990584;28;20540;-74
2023/04/04 08:47:04;;;;;;;3.10;2.80;;;4.90;41.40;;;4.53;39.89;98821.88;4983967;28;20491;-75
2023/04/04 08:49:37;;;;;;;3.50;3.03;;;4.80;41.30;;;4.50;39.72;98819.50;4992293;28;20452;-74
2023/04/04 08:52:07;;;;;;;4.17;2.67;;;4.90;41.40;;;4.78;40.24;98821.19;4992066;28;20501;-78
2023/04/04 08:54:35;;;;;;;4.07;3.20;;;4.90;41.90;;;4.79;39.36;98825.53;4988729;28;20587;-75
2023/04/04 08:57:03;;;;;;;5.97;3.40;;;5.10;41.30;;;4.53;40.15;98815.66;4967300;28;22032;-74
2023/04/04 08:59:30;;;;;;;3.90;2.70;;;5.00;41.10;;;5.27;39.23;98817.91;4971270;28;20504;-76
2023/04/04 09:02:15;;;;;;;3.63;2.97;;;5.20;41.60;;;5.16;40.35;98815.50;4981797;28;20452;-74
2023/04/04 09:04:45;;;;;;;3.50;3.10;;;5.20;41.70;;;5.86;39.19;98810.84;4960462;28;20558;-77
2023/04/04 09:07:14;;;;;;;4.77;3.90;;;5.60;42.00;;;5.86;38.52;98809.03;4986823;28;20879;-73
2023/04/04 09:09:44;;;;;;;7.90;3.90;;;5.90;41.50;;;5.52;39.91;98820.66;4986233;28;20478;-73
2023/04/04 09:12:14;;;;;;;3.77;3.30;;;5.80;41.80;;;5.18;39.72;98810.84;4960842;28;20452;-71
2023/04/04 09:14:44;;;;;;;5.07;3.70;;;5.60;41.40;;;5.13;40.35;98813.97;4988897;28;20515;-72
2023/04/04 09:17:12;;;;;;;4.37;3.97;;;5.40;41.30;;;4.92;40.97;98815.25;4983356;28;20473;-74
2023/04/04 09:19:40;;;;;;;5.63;3.10;;;5.30;41.70;;;4.91;40.08;98808.22;4981886;28;20976;-82
2023/04/04 09:22:09;;;;;;;3.30;3.00;;;5.10;41.40;;;4.85;41.40;98816.84;4981829;28;20488;-74
2023/04/04 09:24:39;;;;;;;7.03;3.77;;;5.00;41.80;;;4.78;40.49;98826.53;4988704;28;20536;-75
2023/04/04 09:27:09;;;;;;;4.40;3.20;;;5.20;41.20;;;4.89;40.24;98825.41;4986558;28;20464;-77
2023/04/04 09:29:38;;;;;;;4.00;3.60;;;5.20;41.20;;;5.13;40.00;98802.44;4979033;28;20456;-76
2023/04/04 09:32:08;;;;;;;3.87;3.17;;;5.30;41.40;;;5.66;38.62;98816.53;4969045;28;20545;-76
2023/04/04 09:34:37;;;;;;;5.90;3.50;;;5.60;41.20;;;5.66;39.00;98811.97;4979709;28;20463;-74
2023/04/04 09:37:05;;;;;;;6.80;3.30;;;5.70;41.20;;;5.63;38.64;98820.34;4982149;28;20549;-75
2023/04/04 09:39:35;;;;;;;4.40;3.10;;;5.90;41.00;;;5.08;38.86;98808.28;4967253;28;20477;-76
2023/04/04 09:42:02;;;;;;;7.63;3.57;;;5.70;40.20;;;4.90;39.93;98817.25;4978821;28;20464;-75
2023/04/04 09:44:32;;;;;;;4.20;3.40;;;5.40;40.60;;;5.42;38.28;98809.25;4985413;28;20463;-73
2023/04/04 09:47:25;;;;;;;3.60;3.20;;;5.60;40.30;;;5.38;37.62;98808.72;4965874;28;20700;-75
2023/04/04 09:49:52;;;;;;;5.23;3.30;;;5.70;39.50;;;4.98;39.03;98808.41;4959513;28;20605;-76
2023/04/04 09:52:21;;;;;;;5.90;3.37;;;5.50;39.70;;;5.24;39.04;98808.34;4987405;28;20468;-76
2023/04/04 09:55:00;;;;;;;3.50;3.20;;;5.50;40.00;;;5.24;39.13;98818.25;4983030;28;20468;-77
2023/04/04 09:57:30;;;;;;;3.60;2.93;;;5.50;40.10;;;5.05;39.36;98812.09;4961223;28;21074;-70
2023/04/04 09:59:59;;;;;;;5.83;3.30;;;5.40;39.70;;;4.94;37.87;98804.38;4980599;28;20476;-76
2023/04/04 10:02:27;;;;;;;3.97;3.10;;;5.30;39.10;;;4.80;38.11;98819.19;4964837;28;20480;-80
2023/04/04 10:04:56;;;;;;;6.27;3.47;;;5.20;39.30;;;5.39;37.48;98810.41;4962942;28;20847;-75
2023/04/04 10:07:25;;;;;;;4.63;3.70;;;5.50;38.80;;;5.28;37.11;98813.38;4961483;28;20456;-76
2023/04/04 10:09:53;;;;;;;3.20;2.90;;;5.50;38.50;;;5.58;36.45;98809.28;4978109;28;20456;-77
2023/04/04 10:12:25;;;;;;;3.83;3.40;;;5.80;38.60;;;5.66;37.48;98803.94;4963103;28;20449;-75
2023/04/04 10:14:56;;;;;;;3.43;3.10;;;5.90;39.00;;;5.70;37.21;98798.28;4980569;28;20456;-75
2023/04/04 10:17:25;;;;;;;3.40;3.10;;;6.00;38.90;;;6.21;36.77;98803.50;4982031;28;20603;-76
2023/04/04 10:19:52;;;;;;;3.73;3.33;;;6.30;39.00;;;6.37;36.03;98798.16;4982862;28;20479;-74
2023/04/04 10:22:22;;;;;;;3.80;3.17;;;6.60;39.00;;;6.37;35.67;98791.94;4961239;28;20457;-74
2023/04/04 10:24:49;;;;;;;5.20;3.37;;;6.60;38.40;;;6.66;35.90;98786.00;4960644;28;20460;-75
2023/04/04 10:27:16;;;;;;;5.10;2.97;;;6.70;38.50;;;6.66;35.85;98790.56;4982699;28;20548;-75
2023/04/04 10:29:45;;;;;;;5.50;3.43;;;6.80;38.40;;;6.59;36.43;98785.03;4978035;28;20458;-73
2023/04/04 10:32:22;;;;;;;4.00;3.17;;;6.80;38.70;;;6.12;36.58;98794.63;4980125;28;20471;-77